Burns, OR

6:54 AM PDT on October 02, 2014 (GMT -0700)
Burns Municipal | Change Station
CLOSE
Current Station
Airport
Location: Burns,
Elevation: 4170 ft
Nearby Weather Stations

Elev 4170 ft 43.60 °N, 118.96 °W | Updated 1 hour ago

Partly Cloudy
Partly Cloudy
22 °F
Feels Like 17 °F
N
4
Wind Variable Wind from WSW

Today
High -- | Low -- °F
--% Chance of Precip.
Yesterday
High -- | Low -- °F
Precip. -- in
6:53 AM 6:34 PM
First Quarter, 59% visible
Pressure 30.26 in
Visibility 10.0 miles
Clouds Clear
Windchill 17 °F
Dew Point 19 °F
Humidity 89%
Rainfall 0.00 in
Snow Depth 0 in , 0 in , 0 in
UV 0 out of 12
Pollen 4.60 out of 12
Air Quality Not available.
Flu Activity Not available.
METAR KBNO 021253Z AUTO 25003KT 10SM CLR M06/M07 A3023 RMK AO2 SLP245 T10561072

More Conditions Fewer Conditions

Pressure 30.26 in
Visibility 10.0 miles
Clouds Clear
Windchill 17 °F
Dew Point 19 °F
Humidity 89%
Rainfall 0.00 in
Snow Depth 0 in , 0 in , 0 in
UV 0 out of 12
Pollen 4.60 out of 12
Air Quality Not available.
Flu Activity Not available.
METAR KBNO 021253Z AUTO 25003KT 10SM CLR M06/M07 A3023 RMK AO2 SLP245 T10561072

More Conditions Fewer Conditions

10-Day Weather Forecast

Almanac

Astronomy

Oct. 02, 2014 Rise Set
Actual Time 6:53 AM PDT 6:34 PM PDT
Civil Twilight 6:25 AM PDT 7:02 PM PDT
Nautical Twilight 5:52 AM PDT 7:35 PM PDT
Astronomical Twilight 5:18 AM PDT 8:09 PM PDT
Moon 2:53 PM PDT 12:05 AM PDT
Length of Visible Light 12h 37m
Length of Day
11h 40m
Tomorrow will be 2m 57s shorter.
First Quarter, 59% of the Moon is Illuminated
Today
First Quarter
Oct 8
Full
Oct 15
Last Quarter
Oct 23
New
Oct 30
First Quarter

Today's Extremes

State Highs State Lows

Community

WunderPhotos

Upload Photos

1,758,245 photos uploaded!

WunderBlogs® & News

Nearby

Snow Depth

Station Depth Elevation
Sevenmile Marsh 0 in 6200 ft
Cold Springs Camp 0 in 6100 ft
Gerber Reservoir 0 in 4850 ft
Fish Lake 0 in 4665 ft
Daly Lake 0 in 3600 ft

Earthquake Activity

City Distance Mag. Time & Date
Lakeview, Oregon 120 miles 2.7 7:56 PM PDT
2014-10-01
Lakeview, Oregon 120 miles 3.0 1:55 PM PDT
2014-10-01
Lakeview, Oregon 120 miles 3.2 12:54 PM PDT
2014-10-01
Lakeview, Oregon 123 miles 2.5 10:36 AM PDT
2014-10-01
Minimum magnitude displayed is 2.5.

Coastal Water Temperatures

Place Temperature
No Stations Reporting

Nearby Weather Stations